sensor_id;sensor_type;location;lat;lon;timestamp;P1;durP1;ratioP1;P2;durP2;ratioP2
21675;SDS011;10999;51.332;9.458;2023-09-12T00:02:11;13.45;;;6.63;;
21675;SDS011;10999;51.332;9.458;2023-09-12T00:04:40;14.13;;;6.97;;
21675;SDS011;10999;51.332;9.458;2023-09-12T00:07:07;14.98;;;7.07;;
21675;SDS011;10999;51.332;9.458;2023-09-12T00:09:34;15.00;;;7.45;;
21675;SDS011;10999;51.332;9.458;2023-09-12T00:12:01;12.32;;;6.68;;
21675;SDS011;10999;51.332;9.458;2023-09-12T00:14:28;11.75;;;6.38;;
21675;SDS011;10999;51.332;9.458;2023-09-12T00:16:54;12.65;;;5.70;;
21675;SDS011;10999;51.332;9.458;2023-09-12T00:19:21;15.85;;;6.53;;
21675;SDS011;10999;51.332;9.458;2023-09-12T00:21:48;13.02;;;6.88;;
21675;SDS011;10999;51.332;9.458;2023-09-12T00:24:15;14.82;;;7.30;;
21675;SDS011;10999;51.332;9.458;2023-09-12T00:26:42;13.05;;;6.88;;
21675;SDS011;10999;51.332;9.458;2023-09-12T00:29:09;14.43;;;7.03;;
21675;SDS011;10999;51.332;9.458;2023-09-12T00:31:35;11.82;;;6.07;;
21675;SDS011;10999;51.332;9.458;2023-09-12T00:34:02;15.60;;;6.97;;
21675;SDS011;10999;51.332;9.458;2023-09-12T00:36:29;9.98;;;6.00;;
21675;SDS011;10999;51.332;9.458;2023-09-12T00:38:56;12.88;;;6.25;;
21675;SDS011;10999;51.332;9.458;2023-09-12T00:41:23;11.73;;;6.03;;
21675;SDS011;10999;51.332;9.458;2023-09-12T00:43:50;11.77;;;6.63;;
21675;SDS011;10999;51.332;9.458;2023-09-12T00:46:18;14.40;;;7.35;;
21675;SDS011;10999;51.332;9.458;2023-09-12T00:48:46;15.18;;;6.90;;
21675;SDS011;10999;51.332;9.458;2023-09-12T00:51:15;16.00;;;7.05;;
21675;SDS011;10999;51.332;9.458;2023-09-12T00:53:43;10.35;;;6.38;;
21675;SDS011;10999;51.332;9.458;2023-09-12T00:56:10;14.18;;;7.38;;
21675;SDS011;10999;51.332;9.458;2023-09-12T00:58:36;14.13;;;7.03;;
21675;SDS011;10999;51.332;9.458;2023-09-12T01:01:03;15.45;;;6.97;;
21675;SDS011;10999;51.332;9.458;2023-09-12T01:03:30;10.57;;;6.35;;
21675;SDS011;10999;51.332;9.458;2023-09-12T01:05:58;12.05;;;6.30;;
21675;SDS011;10999;51.332;9.458;2023-09-12T01:08:26;12.60;;;6.80;;
21675;SDS011;10999;51.332;9.458;2023-09-12T01:10:53;12.10;;;6.25;;
21675;SDS011;10999;51.332;9.458;2023-09-12T01:13:23;15.25;;;6.35;;
21675;SDS011;10999;51.332;9.458;2023-09-12T01:15:50;13.93;;;6.45;;
21675;SDS011;10999;51.332;9.458;2023-09-12T01:18:16;12.05;;;5.97;;
21675;SDS011;10999;51.332;9.458;2023-09-12T01:20:51;15.25;;;7.55;;
21675;SDS011;10999;51.332;9.458;2023-09-12T01:26:29;14.77;;;7.25;;
21675;SDS011;10999;51.332;9.458;2023-09-12T01:29:15;15.60;;;6.97;;
21675;SDS011;10999;51.332;9.458;2023-09-12T01:31:42;13.63;;;6.93;;
21675;SDS011;10999;51.332;9.458;2023-09-12T01:34:11;15.02;;;7.07;;
21675;SDS011;10999;51.332;9.458;2023-09-12T01:36:38;13.80;;;6.53;;
21675;SDS011;10999;51.332;9.458;2023-09-12T01:39:05;13.70;;;7.72;;
21675;SDS011;10999;51.332;9.458;2023-09-12T01:41:34;17.23;;;7.55;;
21675;SDS011;10999;51.332;9.458;2023-09-12T01:44:05;14.23;;;7.35;;
21675;SDS011;10999;51.332;9.458;2023-09-12T01:46:34;12.20;;;6.75;;
21675;SDS011;10999;51.332;9.458;2023-09-12T01:49:03;14.55;;;6.57;;
21675;SDS011;10999;51.332;9.458;2023-09-12T01:51:31;13.75;;;7.22;;
21675;SDS011;10999;51.332;9.458;2023-09-12T01:53:59;16.70;;;8.20;;
21675;SDS011;10999;51.332;9.458;2023-09-12T01:56:27;14.82;;;7.35;;
21675;SDS011;10999;51.332;9.458;2023-09-12T01:58:54;10.88;;;6.53;;
21675;SDS011;10999;51.332;9.458;2023-09-12T02:01:22;12.90;;;7.90;;
21675;SDS011;10999;51.332;9.458;2023-09-12T02:03:49;13.50;;;7.53;;
21675;SDS011;10999;51.332;9.458;2023-09-12T02:06:15;12.10;;;6.78;;
21675;SDS011;10999;51.332;9.458;2023-09-12T02:08:42;14.02;;;7.65;;
21675;SDS011;10999;51.332;9.458;2023-09-12T02:11:09;13.68;;;7.00;;
21675;SDS011;10999;51.332;9.458;2023-09-12T02:13:36;16.02;;;7.85;;
21675;SDS011;10999;51.332;9.458;2023-09-12T02:16:03;12.80;;;7.45;;
21675;SDS011;10999;51.332;9.458;2023-09-12T02:18:30;16.13;;;7.93;;
21675;SDS011;10999;51.332;9.458;2023-09-12T02:21:00;12.77;;;7.63;;
21675;SDS011;10999;51.332;9.458;2023-09-12T02:23:26;15.40;;;6.85;;
21675;SDS011;10999;51.332;9.458;2023-09-12T02:25:53;14.60;;;7.50;;
21675;SDS011;10999;51.332;9.458;2023-09-12T02:28:21;16.50;;;8.25;;
21675;SDS011;10999;51.332;9.458;2023-09-12T02:30:48;16.10;;;7.97;;
21675;SDS011;10999;51.332;9.458;2023-09-12T02:33:15;17.52;;;8.00;;
21675;SDS011;10999;51.332;9.458;2023-09-12T02:35:42;14.23;;;7.68;;
21675;SDS011;10999;51.332;9.458;2023-09-12T02:38:08;13.63;;;7.10;;
21675;SDS011;10999;51.332;9.458;2023-09-12T02:40:35;14.18;;;7.20;;
21675;SDS011;10999;51.332;9.458;2023-09-12T02:43:02;13.60;;;6.78;;
21675;SDS011;10999;51.332;9.458;2023-09-12T02:45:29;13.63;;;6.97;;
21675;SDS011;10999;51.332;9.458;2023-09-12T02:47:56;15.32;;;7.93;;
21675;SDS011;10999;51.332;9.458;2023-09-12T02:50:23;14.55;;;6.80;;
21675;SDS011;10999;51.332;9.458;2023-09-12T02:52:49;13.43;;;7.03;;
21675;SDS011;10999;51.332;9.458;2023-09-12T02:55:16;12.95;;;6.80;;
21675;SDS011;10999;51.332;9.458;2023-09-12T02:57:43;14.82;;;7.95;;
21675;SDS011;10999;51.332;9.458;2023-09-12T03:00:10;13.13;;;7.47;;
21675;SDS011;10999;51.332;9.458;2023-09-12T03:02:37;16.92;;;7.00;;
21675;SDS011;10999;51.332;9.458;2023-09-12T03:05:04;16.70;;;7.95;;
21675;SDS011;10999;51.332;9.458;2023-09-12T03:07:32;14.18;;;7.03;;
21675;SDS011;10999;51.332;9.458;2023-09-12T03:09:58;11.85;;;6.93;;
21675;SDS011;10999;51.332;9.458;2023-09-12T03:12:25;10.80;;;6.43;;
21675;SDS011;10999;51.332;9.458;2023-09-12T03:14:52;13.82;;;6.45;;
21675;SDS011;10999;51.332;9.458;2023-09-12T03:17:19;12.35;;;6.68;;
21675;SDS011;10999;51.332;9.458;2023-09-12T03:19:46;14.93;;;8.27;;
21675;SDS011;10999;51.332;9.458;2023-09-12T03:22:12;13.57;;;6.53;;
21675;SDS011;10999;51.332;9.458;2023-09-12T03:24:39;14.30;;;7.68;;
21675;SDS011;10999;51.332;9.458;2023-09-12T03:27:06;17.05;;;8.73;;
21675;SDS011;10999;51.332;9.458;2023-09-12T03:29:34;15.77;;;7.97;;
21675;SDS011;10999;51.332;9.458;2023-09-12T03:32:00;13.20;;;6.90;;
21675;SDS011;10999;51.332;9.458;2023-09-12T03:34:27;16.20;;;7.80;;
21675;SDS011;10999;51.332;9.458;2023-09-12T03:36:54;13.88;;;7.18;;
21675;SDS011;10999;51.332;9.458;2023-09-12T03:39:21;12.30;;;6.07;;
21675;SDS011;10999;51.332;9.458;2023-09-12T03:41:47;14.07;;;8.25;;
21675;SDS011;10999;51.332;9.458;2023-09-12T03:44:14;13.43;;;7.57;;
21675;SDS011;10999;51.332;9.458;2023-09-12T03:46:41;16.35;;;7.97;;
21675;SDS011;10999;51.332;9.458;2023-09-12T03:49:07;14.30;;;7.65;;
21675;SDS011;10999;51.332;9.458;2023-09-12T03:51:34;15.20;;;8.40;;
21675;SDS011;10999;51.332;9.458;2023-09-12T03:54:04;13.38;;;7.50;;
21675;SDS011;10999;51.332;9.458;2023-09-12T03:56:30;17.08;;;7.45;;
21675;SDS011;10999;51.332;9.458;2023-09-12T03:58:57;15.90;;;7.90;;
21675;SDS011;10999;51.332;9.458;2023-09-12T04:01:26;16.30;;;7.68;;
21675;SDS011;10999;51.332;9.458;2023-09-12T04:03:53;12.98;;;7.13;;
21675;SDS011;10999;51.332;9.458;2023-09-12T04:06:20;16.20;;;7.38;;
21675;SDS011;10999;51.332;9.458;2023-09-12T04:08:47;15.65;;;8.00;;
21675;SDS011;10999;51.332;9.458;2023-09-12T04:11:14;17.42;;;8.00;;
21675;SDS011;10999;51.332;9.458;2023-09-12T04:13:41;16.15;;;7.80;;
21675;SDS011;10999;51.332;9.458;2023-09-12T04:16:07;18.02;;;8.30;;
21675;SDS011;10999;51.332;9.458;2023-09-12T04:18:34;16.30;;;8.60;;
21675;SDS011;10999;51.332;9.458;2023-09-12T04:21:01;13.32;;;7.60;;
21675;SDS011;10999;51.332;9.458;2023-09-12T04:23:29;11.98;;;6.85;;
21675;SDS011;10999;51.332;9.458;2023-09-12T04:25:56;16.20;;;7.45;;
21675;SDS011;10999;51.332;9.458;2023-09-12T04:28:22;14.73;;;7.60;;
21675;SDS011;10999;51.332;9.458;2023-09-12T04:31:00;13.63;;;6.88;;
21675;SDS011;10999;51.332;9.458;2023-09-12T04:33:28;13.73;;;7.63;;
21675;SDS011;10999;51.332;9.458;2023-09-12T04:35:57;14.75;;;7.10;;
21675;SDS011;10999;51.332;9.458;2023-09-12T04:38:25;17.10;;;10.32;;
21675;SDS011;10999;51.332;9.458;2023-09-12T04:40:56;16.42;;;8.38;;
21675;SDS011;10999;51.332;9.458;2023-09-12T04:43:23;17.00;;;8.20;;
21675;SDS011;10999;51.332;9.458;2023-09-12T04:45:50;16.58;;;8.35;;
21675;SDS011;10999;51.332;9.458;2023-09-12T04:48:17;14.80;;;8.70;;
21675;SDS011;10999;51.332;9.458;2023-09-12T04:50:44;13.77;;;7.55;;
21675;SDS011;10999;51.332;9.458;2023-09-12T04:53:11;15.00;;;8.05;;
21675;SDS011;10999;51.332;9.458;2023-09-12T04:55:38;15.57;;;7.72;;
21675;SDS011;10999;51.332;9.458;2023-09-12T04:58:05;14.57;;;7.97;;
21675;SDS011;10999;51.332;9.458;2023-09-12T05:00:32;16.52;;;8.27;;
21675;SDS011;10999;51.332;9.458;2023-09-12T05:03:00;15.43;;;8.32;;
21675;SDS011;10999;51.332;9.458;2023-09-12T05:05:28;13.88;;;8.32;;
21675;SDS011;10999;51.332;9.458;2023-09-12T05:07:55;12.68;;;7.78;;
21675;SDS011;10999;51.332;9.458;2023-09-12T05:10:22;13.73;;;8.25;;
21675;SDS011;10999;51.332;9.458;2023-09-12T05:12:49;16.25;;;8.13;;
21675;SDS011;10999;51.332;9.458;2023-09-12T05:15:15;13.80;;;7.00;;
21675;SDS011;10999;51.332;9.458;2023-09-12T05:17:42;14.93;;;7.78;;
21675;SDS011;10999;51.332;9.458;2023-09-12T05:20:09;13.60;;;7.60;;
21675;SDS011;10999;51.332;9.458;2023-09-12T05:22:36;17.02;;;7.97;;
21675;SDS011;10999;51.332;9.458;2023-09-12T05:25:03;15.70;;;7.88;;
21675;SDS011;10999;51.332;9.458;2023-09-12T05:27:30;15.57;;;7.93;;
21675;SDS011;10999;51.332;9.458;2023-09-12T05:29:57;15.90;;;8.30;;
21675;SDS011;10999;51.332;9.458;2023-09-12T05:32:23;17.20;;;9.18;;
21675;SDS011;10999;51.332;9.458;2023-09-12T05:34:50;14.02;;;7.38;;
21675;SDS011;10999;51.332;9.458;2023-09-12T05:37:28;16.08;;;9.90;;
21675;SDS011;10999;51.332;9.458;2023-09-12T05:39:55;19.00;;;9.23;;
21675;SDS011;10999;51.332;9.458;2023-09-12T05:42:21;18.33;;;9.70;;
21675;SDS011;10999;51.332;9.458;2023-09-12T05:44:49;15.10;;;7.43;;
21675;SDS011;10999;51.332;9.458;2023-09-12T05:47:16;19.70;;;9.20;;
21675;SDS011;10999;51.332;9.458;2023-09-12T05:49:42;14.15;;;8.45;;
21675;SDS011;10999;51.332;9.458;2023-09-12T05:52:09;16.23;;;9.00;;
21675;SDS011;10999;51.332;9.458;2023-09-12T05:54:37;13.82;;;8.60;;
21675;SDS011;10999;51.332;9.458;2023-09-12T05:57:05;17.45;;;9.40;;
21675;SDS011;10999;51.332;9.458;2023-09-12T05:59:35;19.40;;;9.15;;
21675;SDS011;10999;51.332;9.458;2023-09-12T06:02:03;28.88;;;15.20;;
21675;SDS011;10999;51.332;9.458;2023-09-12T06:04:32;27.67;;;15.13;;
21675;SDS011;10999;51.332;9.458;2023-09-12T06:06:59;27.08;;;13.60;;
21675;SDS011;10999;51.332;9.458;2023-09-12T06:09:27;25.35;;;14.48;;
21675;SDS011;10999;51.332;9.458;2023-09-12T06:11:54;22.70;;;13.02;;
21675;SDS011;10999;51.332;9.458;2023-09-12T06:14:21;21.75;;;14.10;;
21675;SDS011;10999;51.332;9.458;2023-09-12T06:16:48;28.40;;;17.55;;
21675;SDS011;10999;51.332;9.458;2023-09-12T06:19:15;24.70;;;13.75;;
21675;SDS011;10999;51.332;9.458;2023-09-12T06:21:42;24.10;;;13.48;;
21675;SDS011;10999;51.332;9.458;2023-09-12T06:26:40;21.45;;;12.85;;
21675;SDS011;10999;51.332;9.458;2023-09-12T06:29:07;23.05;;;13.40;;
21675;SDS011;10999;51.332;9.458;2023-09-12T06:31:34;25.20;;;13.57;;
21675;SDS011;10999;51.332;9.458;2023-09-12T06:34:02;23.25;;;12.85;;
21675;SDS011;10999;51.332;9.458;2023-09-12T06:36:28;29.73;;;14.15;;
21675;SDS011;10999;51.332;9.458;2023-09-12T06:38:56;26.67;;;16.23;;
21675;SDS011;10999;51.332;9.458;2023-09-12T06:41:23;24.17;;;13.55;;
21675;SDS011;10999;51.332;9.458;2023-09-12T06:43:50;23.35;;;13.65;;
21675;SDS011;10999;51.332;9.458;2023-09-12T06:46:17;21.55;;;11.30;;
21675;SDS011;10999;51.332;9.458;2023-09-12T06:48:44;25.20;;;13.93;;
21675;SDS011;10999;51.332;9.458;2023-09-12T06:51:12;16.42;;;10.48;;
21675;SDS011;10999;51.332;9.458;2023-09-12T06:53:42;24.17;;;13.40;;
21675;SDS011;10999;51.332;9.458;2023-09-12T06:56:10;22.23;;;11.15;;
21675;SDS011;10999;51.332;9.458;2023-09-12T06:58:37;21.33;;;11.57;;
21675;SDS011;10999;51.332;9.458;2023-09-12T07:01:04;25.55;;;14.10;;
21675;SDS011;10999;51.332;9.458;2023-09-12T07:03:32;26.90;;;14.68;;
21675;SDS011;10999;51.332;9.458;2023-09-12T07:06:00;20.98;;;11.40;;
21675;SDS011;10999;51.332;9.458;2023-09-12T07:08:29;21.08;;;14.38;;
21675;SDS011;10999;51.332;9.458;2023-09-12T07:10:57;25.15;;;14.57;;
21675;SDS011;10999;51.332;9.458;2023-09-12T07:13:24;27.75;;;13.95;;
21675;SDS011;10999;51.332;9.458;2023-09-12T07:15:51;27.70;;;13.55;;
21675;SDS011;10999;51.332;9.458;2023-09-12T07:18:18;18.88;;;12.50;;
21675;SDS011;10999;51.332;9.458;2023-09-12T07:20:46;22.83;;;13.70;;
21675;SDS011;10999;51.332;9.458;2023-09-12T07:23:22;23.92;;;13.55;;
21675;SDS011;10999;51.332;9.458;2023-09-12T07:25:49;20.70;;;12.43;;
21675;SDS011;10999;51.332;9.458;2023-09-12T07:28:15;28.08;;;13.00;;
21675;SDS011;10999;51.332;9.458;2023-09-12T07:30:44;22.05;;;12.70;;
21675;SDS011;10999;51.332;9.458;2023-09-12T07:33:12;23.98;;;13.15;;
21675;SDS011;10999;51.332;9.458;2023-09-12T07:35:39;22.13;;;13.27;;
21675;SDS011;10999;51.332;9.458;2023-09-12T07:38:06;18.90;;;10.80;;
21675;SDS011;10999;51.332;9.458;2023-09-12T07:40:33;20.73;;;12.10;;
21675;SDS011;10999;51.332;9.458;2023-09-12T07:43:00;18.77;;;10.82;;
21675;SDS011;10999;51.332;9.458;2023-09-12T07:45:26;20.23;;;11.55;;
21675;SDS011;10999;51.332;9.458;2023-09-12T07:47:54;16.83;;;10.25;;
21675;SDS011;10999;51.332;9.458;2023-09-12T07:50:21;19.13;;;11.82;;
21675;SDS011;10999;51.332;9.458;2023-09-12T07:52:47;17.58;;;9.65;;
21675;SDS011;10999;51.332;9.458;2023-09-12T07:55:14;17.67;;;10.50;;
21675;SDS011;10999;51.332;9.458;2023-09-12T07:57:41;21.98;;;10.85;;
21675;SDS011;10999;51.332;9.458;2023-09-12T08:00:09;19.90;;;10.85;;
21675;SDS011;10999;51.332;9.458;2023-09-12T08:02:36;17.90;;;10.80;;
21675;SDS011;10999;51.332;9.458;2023-09-12T08:05:04;23.45;;;11.82;;
21675;SDS011;10999;51.332;9.458;2023-09-12T08:07:31;15.90;;;9.05;;
21675;SDS011;10999;51.332;9.458;2023-09-12T08:09:58;18.23;;;10.70;;
21675;SDS011;10999;51.332;9.458;2023-09-12T08:12:25;17.05;;;9.77;;
21675;SDS011;10999;51.332;9.458;2023-09-12T08:14:54;15.98;;;8.77;;
21675;SDS011;10999;51.332;9.458;2023-09-12T08:17:21;20.42;;;10.80;;
21675;SDS011;10999;51.332;9.458;2023-09-12T08:19:48;15.52;;;8.50;;
21675;SDS011;10999;51.332;9.458;2023-09-12T08:22:16;14.82;;;8.13;;
21675;SDS011;10999;51.332;9.458;2023-09-12T08:24:43;15.73;;;8.65;;
21675;SDS011;10999;51.332;9.458;2023-09-12T08:27:10;16.08;;;8.20;;
21675;SDS011;10999;51.332;9.458;2023-09-12T08:29:37;13.65;;;7.93;;
21675;SDS011;10999;51.332;9.458;2023-09-12T08:32:04;17.48;;;7.70;;
21675;SDS011;10999;51.332;9.458;2023-09-12T08:34:31;15.57;;;7.57;;
21675;SDS011;10999;51.332;9.458;2023-09-12T08:36:59;13.20;;;6.78;;
21675;SDS011;10999;51.332;9.458;2023-09-12T08:39:26;10.50;;;6.05;;
21675;SDS011;10999;51.332;9.458;2023-09-12T08:41:54;12.48;;;6.25;;
21675;SDS011;10999;51.332;9.458;2023-09-12T08:44:21;12.23;;;7.55;;
21675;SDS011;10999;51.332;9.458;2023-09-12T08:46:48;10.88;;;5.30;;
21675;SDS011;10999;51.332;9.458;2023-09-12T08:49:15;10.98;;;5.72;;
21675;SDS011;10999;51.332;9.458;2023-09-12T08:51:42;10.35;;;5.65;;
21675;SDS011;10999;51.332;9.458;2023-09-12T08:54:10;9.75;;;5.63;;
21675;SDS011;10999;51.332;9.458;2023-09-12T08:56:39;10.30;;;5.13;;
21675;SDS011;10999;51.332;9.458;2023-09-12T08:59:08;10.85;;;5.60;;
21675;SDS011;10999;51.332;9.458;2023-09-12T09:01:36;9.52;;;5.10;;
21675;SDS011;10999;51.332;9.458;2023-09-12T09:04:05;11.52;;;5.35;;
21675;SDS011;10999;51.332;9.458;2023-09-12T09:06:32;10.77;;;5.60;;
21675;SDS011;10999;51.332;9.458;2023-09-12T09:09:04;9.88;;;5.00;;
21675;SDS011;10999;51.332;9.458;2023-09-12T09:11:32;10.10;;;5.22;;
21675;SDS011;10999;51.332;9.458;2023-09-12T09:14:01;8.57;;;5.00;;
21675;SDS011;10999;51.332;9.458;2023-09-12T09:16:29;9.48;;;5.00;;
21675;SDS011;10999;51.332;9.458;2023-09-12T09:19:00;11.15;;;4.88;;
21675;SDS011;10999;51.332;9.458;2023-09-12T09:21:30;10.23;;;5.10;;
21675;SDS011;10999;51.332;9.458;2023-09-12T09:24:03;11.75;;;5.57;;
21675;SDS011;10999;51.332;9.458;2023-09-12T09:26:48;9.15;;;4.85;;
21675;SDS011;10999;51.332;9.458;2023-09-12T09:29:25;10.30;;;5.10;;
21675;SDS011;10999;51.332;9.458;2023-09-12T09:31:52;9.02;;;5.18;;
21675;SDS011;10999;51.332;9.458;2023-09-12T09:34:19;10.65;;;4.93;;
21675;SDS011;10999;51.332;9.458;2023-09-12T09:36:48;9.10;;;5.07;;
21675;SDS011;10999;51.332;9.458;2023-09-12T09:39:16;10.65;;;5.32;;
21675;SDS011;10999;51.332;9.458;2023-09-12T09:41:52;9.40;;;5.07;;
21675;SDS011;10999;51.332;9.458;2023-09-12T09:44:23;9.60;;;5.13;;
21675;SDS011;10999;51.332;9.458;2023-09-12T09:46:54;12.38;;;4.70;;
21675;SDS011;10999;51.332;9.458;2023-09-12T09:49:26;8.70;;;4.75;;
21675;SDS011;10999;51.332;9.458;2023-09-12T09:51:54;11.75;;;5.45;;
21675;SDS011;10999;51.332;9.458;2023-09-12T09:54:23;10.27;;;5.28;;
21675;SDS011;10999;51.332;9.458;2023-09-12T09:56:55;10.88;;;5.03;;
21675;SDS011;10999;51.332;9.458;2023-09-12T09:59:26;8.68;;;5.13;;
21675;SDS011;10999;51.332;9.458;2023-09-12T10:01:57;10.73;;;5.00;;
21675;SDS011;10999;51.332;9.458;2023-09-12T10:04:26;11.90;;;4.78;;
21675;SDS011;10999;51.332;9.458;2023-09-12T10:06:58;11.52;;;5.45;;
21675;SDS011;10999;51.332;9.458;2023-09-12T10:09:28;11.02;;;4.93;;
21675;SDS011;10999;51.332;9.458;2023-09-12T10:11:56;10.23;;;5.38;;
21675;SDS011;10999;51.332;9.458;2023-09-12T10:14:24;10.48;;;5.47;;
21675;SDS011;10999;51.332;9.458;2023-09-12T10:16:56;10.75;;;6.03;;
21675;SDS011;10999;51.332;9.458;2023-09-12T10:19:35;8.10;;;5.47;;
21675;SDS011;10999;51.332;9.458;2023-09-12T10:22:17;10.60;;;5.57;;
21675;SDS011;10999;51.332;9.458;2023-09-12T10:24:53;10.13;;;5.15;;
21675;SDS011;10999;51.332;9.458;2023-09-12T10:27:22;9.77;;;4.82;;
21675;SDS011;10999;51.332;9.458;2023-09-12T10:29:51;9.70;;;4.00;;
21675;SDS011;10999;51.332;9.458;2023-09-12T10:32:19;10.45;;;5.55;;
21675;SDS011;10999;51.332;9.458;2023-09-12T10:34:48;9.32;;;4.38;;
21675;SDS011;10999;51.332;9.458;2023-09-12T10:37:15;7.97;;;4.40;;
21675;SDS011;10999;51.332;9.458;2023-09-12T10:39:43;8.70;;;4.25;;
21675;SDS011;10999;51.332;9.458;2023-09-12T10:42:11;9.77;;;5.30;;
21675;SDS011;10999;51.332;9.458;2023-09-12T10:44:39;10.30;;;4.38;;
21675;SDS011;10999;51.332;9.458;2023-09-12T10:47:06;9.63;;;4.70;;
21675;SDS011;10999;51.332;9.458;2023-09-12T10:49:33;11.00;;;4.85;;
21675;SDS011;10999;51.332;9.458;2023-09-12T10:52:00;9.25;;;4.80;;
21675;SDS011;10999;51.332;9.458;2023-09-12T10:54:38;10.48;;;5.18;;
21675;SDS011;10999;51.332;9.458;2023-09-12T10:57:07;12.02;;;5.53;;
21675;SDS011;10999;51.332;9.458;2023-09-12T10:59:37;9.10;;;4.43;;
21675;SDS011;10999;51.332;9.458;2023-09-12T11:02:39;10.07;;;4.35;;
21675;SDS011;10999;51.332;9.458;2023-09-12T11:07:56;11.23;;;5.28;;
21675;SDS011;10999;51.332;9.458;2023-09-12T11:10:27;11.38;;;5.13;;
21675;SDS011;10999;51.332;9.458;2023-09-12T11:12:55;11.77;;;5.00;;
21675;SDS011;10999;51.332;9.458;2023-09-12T11:15:27;9.40;;;4.30;;
21675;SDS011;10999;51.332;9.458;2023-09-12T11:18:04;12.23;;;4.65;;
21675;SDS011;10999;51.332;9.458;2023-09-12T11:23:38;9.90;;;5.35;;
21675;SDS011;10999;51.332;9.458;2023-09-12T11:26:06;10.65;;;5.35;;
21675;SDS011;10999;51.332;9.458;2023-09-12T11:28:34;9.80;;;4.97;;
21675;SDS011;10999;51.332;9.458;2023-09-12T11:31:01;12.85;;;5.38;;
21675;SDS011;10999;51.332;9.458;2023-09-12T11:33:28;10.27;;;5.30;;
21675;SDS011;10999;51.332;9.458;2023-09-12T11:35:55;9.35;;;5.00;;
21675;SDS011;10999;51.332;9.458;2023-09-12T11:38:27;8.75;;;5.00;;
21675;SDS011;10999;51.332;9.458;2023-09-12T11:40:56;11.50;;;5.22;;
21675;SDS011;10999;51.332;9.458;2023-09-12T11:43:24;9.43;;;4.57;;
21675;SDS011;10999;51.332;9.458;2023-09-12T11:45:53;9.07;;;4.45;;
21675;SDS011;10999;51.332;9.458;2023-09-12T11:48:21;9.32;;;4.90;;
21675;SDS011;10999;51.332;9.458;2023-09-12T11:50:52;8.80;;;4.90;;
21675;SDS011;10999;51.332;9.458;2023-09-12T11:55:50;8.32;;;4.50;;
21675;SDS011;10999;51.332;9.458;2023-09-12T11:58:19;8.45;;;4.28;;
21675;SDS011;10999;51.332;9.458;2023-09-12T12:00:47;8.30;;;4.45;;
21675;SDS011;10999;51.332;9.458;2023-09-12T12:03:16;8.15;;;4.30;;
21675;SDS011;10999;51.332;9.458;2023-09-12T12:05:44;7.25;;;4.32;;
21675;SDS011;10999;51.332;9.458;2023-09-12T12:08:12;8.77;;;4.88;;
21675;SDS011;10999;51.332;9.458;2023-09-12T12:10:57;8.80;;;4.65;;
21675;SDS011;10999;51.332;9.458;2023-09-12T12:13:24;10.60;;;5.05;;
21675;SDS011;10999;51.332;9.458;2023-09-12T12:15:51;9.70;;;4.50;;
21675;SDS011;10999;51.332;9.458;2023-09-12T12:18:18;9.55;;;4.47;;
21675;SDS011;10999;51.332;9.458;2023-09-12T12:20:45;9.75;;;4.75;;
21675;SDS011;10999;51.332;9.458;2023-09-12T12:23:13;10.60;;;4.97;;
21675;SDS011;10999;51.332;9.458;2023-09-12T12:25:40;10.55;;;5.38;;
21675;SDS011;10999;51.332;9.458;2023-09-12T12:28:06;10.75;;;5.03;;
21675;SDS011;10999;51.332;9.458;2023-09-12T12:30:34;9.57;;;4.90;;
21675;SDS011;10999;51.332;9.458;2023-09-12T12:33:06;9.30;;;5.20;;
21675;SDS011;10999;51.332;9.458;2023-09-12T12:36:00;11.90;;;5.30;;
21675;SDS011;10999;51.332;9.458;2023-09-12T12:38:31;10.95;;;4.95;;
21675;SDS011;10999;51.332;9.458;2023-09-12T12:41:00;9.57;;;4.45;;
21675;SDS011;10999;51.332;9.458;2023-09-12T12:43:27;10.48;;;5.10;;
21675;SDS011;10999;51.332;9.458;2023-09-12T12:45:55;10.93;;;4.78;;
21675;SDS011;10999;51.332;9.458;2023-09-12T12:48:30;11.95;;;5.30;;
21675;SDS011;10999;51.332;9.458;2023-09-12T12:56:30;11.65;;;5.45;;
21675;SDS011;10999;51.332;9.458;2023-09-12T12:58:58;12.05;;;5.88;;
21675;SDS011;10999;51.332;9.458;2023-09-12T13:01:29;11.73;;;5.38;;
21675;SDS011;10999;51.332;9.458;2023-09-12T13:03:56;8.80;;;5.20;;
21675;SDS011;10999;51.332;9.458;2023-09-12T13:06:23;9.50;;;5.22;;
21675;SDS011;10999;51.332;9.458;2023-09-12T13:08:51;9.40;;;4.95;;
21675;SDS011;10999;51.332;9.458;2023-09-12T13:11:19;10.40;;;5.00;;
21675;SDS011;10999;51.332;9.458;2023-09-12T13:13:47;9.85;;;5.43;;
21675;SDS011;10999;51.332;9.458;2023-09-12T13:16:17;10.88;;;5.25;;
21675;SDS011;10999;51.332;9.458;2023-09-12T13:18:44;11.68;;;4.78;;
21675;SDS011;10999;51.332;9.458;2023-09-12T13:21:11;10.32;;;5.47;;
21675;SDS011;10999;51.332;9.458;2023-09-12T13:23:38;10.18;;;5.10;;
21675;SDS011;10999;51.332;9.458;2023-09-12T13:26:07;8.88;;;4.65;;
21675;SDS011;10999;51.332;9.458;2023-09-12T13:28:37;10.35;;;5.13;;
21675;SDS011;10999;51.332;9.458;2023-09-12T13:31:04;9.05;;;5.28;;
21675;SDS011;10999;51.332;9.458;2023-09-12T13:33:31;10.07;;;5.15;;
21675;SDS011;10999;51.332;9.458;2023-09-12T13:35:58;10.35;;;5.07;;
21675;SDS011;10999;51.332;9.458;2023-09-12T13:38:25;10.43;;;5.25;;
21675;SDS011;10999;51.332;9.458;2023-09-12T13:40:51;9.00;;;5.07;;
21675;SDS011;10999;51.332;9.458;2023-09-12T13:43:18;10.88;;;5.22;;
21675;SDS011;10999;51.332;9.458;2023-09-12T13:45:46;11.73;;;5.85;;
21675;SDS011;10999;51.332;9.458;2023-09-12T13:48:13;9.05;;;5.03;;
21675;SDS011;10999;51.332;9.458;2023-09-12T13:50:40;10.25;;;5.03;;
21675;SDS011;10999;51.332;9.458;2023-09-12T13:53:09;9.50;;;4.72;;
21675;SDS011;10999;51.332;9.458;2023-09-12T13:55:36;8.95;;;4.30;;
21675;SDS011;10999;51.332;9.458;2023-09-12T13:58:23;8.35;;;4.70;;
21675;SDS011;10999;51.332;9.458;2023-09-12T14:00:54;7.90;;;4.32;;
21675;SDS011;10999;51.332;9.458;2023-09-12T14:03:21;8.75;;;4.80;;
21675;SDS011;10999;51.332;9.458;2023-09-12T14:05:48;8.60;;;4.85;;
21675;SDS011;10999;51.332;9.458;2023-09-12T14:08:17;7.85;;;4.50;;
21675;SDS011;10999;51.332;9.458;2023-09-12T14:10:44;7.25;;;4.35;;
21675;SDS011;10999;51.332;9.458;2023-09-12T14:13:11;9.48;;;4.50;;
21675;SDS011;10999;51.332;9.458;2023-09-12T14:15:41;9.90;;;4.53;;
21675;SDS011;10999;51.332;9.458;2023-09-12T14:18:08;9.35;;;4.85;;
21675;SDS011;10999;51.332;9.458;2023-09-12T14:20:36;8.77;;;4.90;;
21675;SDS011;10999;51.332;9.458;2023-09-12T14:23:03;8.05;;;4.72;;
21675;SDS011;10999;51.332;9.458;2023-09-12T14:25:31;11.27;;;4.95;;
21675;SDS011;10999;51.332;9.458;2023-09-12T14:27:58;8.20;;;4.82;;
21675;SDS011;10999;51.332;9.458;2023-09-12T14:30:25;10.65;;;4.88;;
21675;SDS011;10999;51.332;9.458;2023-09-12T14:33:00;8.55;;;4.43;;
21675;SDS011;10999;51.332;9.458;2023-09-12T14:35:28;8.73;;;4.40;;
21675;SDS011;10999;51.332;9.458;2023-09-12T14:37:55;10.55;;;4.30;;
21675;SDS011;10999;51.332;9.458;2023-09-12T14:40:23;8.73;;;4.40;;
21675;SDS011;10999;51.332;9.458;2023-09-12T14:42:50;6.95;;;4.05;;
21675;SDS011;10999;51.332;9.458;2023-09-12T14:45:17;8.60;;;4.40;;
21675;SDS011;10999;51.332;9.458;2023-09-12T14:47:43;11.60;;;5.32;;
21675;SDS011;10999;51.332;9.458;2023-09-12T14:50:10;8.63;;;4.53;;
21675;SDS011;10999;51.332;9.458;2023-09-12T14:52:37;8.88;;;4.47;;
21675;SDS011;10999;51.332;9.458;2023-09-12T14:55:05;8.38;;;4.65;;
21675;SDS011;10999;51.332;9.458;2023-09-12T14:57:34;8.93;;;4.75;;
21675;SDS011;10999;51.332;9.458;2023-09-12T15:00:01;9.25;;;4.82;;
21675;SDS011;10999;51.332;9.458;2023-09-12T15:02:29;10.60;;;4.70;;